createdAt,value
2022-09-28T00:00:17.110Z,2.36
2022-09-28T00:01:17.614Z,2.25
2022-09-28T00:02:05.220Z,2.33
2022-09-28T00:02:52.502Z,2.50
2022-09-28T00:03:38.964Z,2.48
2022-09-28T00:04:25.451Z,2.45
2022-09-28T00:05:12.600Z,2.34
2022-09-28T00:06:06.957Z,2.53
2022-09-28T00:06:53.292Z,2.44
2022-09-28T00:07:39.933Z,2.68
2022-09-28T00:08:26.250Z,2.55
2022-09-28T00:09:13.748Z,2.32
2022-09-28T00:10:00.235Z,2.35
2022-09-28T00:10:54.288Z,2.53
2022-09-28T00:11:40.691Z,2.36
2022-09-28T00:12:28.113Z,2.34
2022-09-28T00:13:14.575Z,2.61
2022-09-28T00:14:03.458Z,2.44
2022-09-28T00:14:49.789Z,2.60
2022-09-28T00:15:36.201Z,2.46
2022-09-28T00:16:25.523Z,2.12
2022-09-28T00:17:12.318Z,2.02
2022-09-28T00:17:58.733Z,1.95
2022-09-28T00:18:45.947Z,1.81
2022-09-28T00:19:32.385Z,1.78
2022-09-28T00:20:19.635Z,1.56
2022-09-28T00:21:08.054Z,1.48
2022-09-28T00:21:54.563Z,1.36
2022-09-28T00:22:41.001Z,1.48
2022-09-28T00:23:27.414Z,1.46
2022-09-28T00:24:17.104Z,1.59
2022-09-28T00:25:03.970Z,1.21
2022-09-28T00:25:50.724Z,1.18
2022-09-28T00:26:37.407Z,0.99
2022-09-28T00:27:24.047Z,1.02
2022-09-28T00:28:10.445Z,1.23
2022-09-28T00:28:59.105Z,1.02
2022-09-28T00:29:45.544Z,1.14
2022-09-28T00:30:31.912Z,1.16
2022-09-28T00:31:18.986Z,1.15
2022-09-28T00:32:13.620Z,1.18
2022-09-28T00:32:59.972Z,0.97
2022-09-28T00:33:57.300Z,0.94
2022-09-28T00:34:48.775Z,1.01
2022-09-28T00:35:35.096Z,1.07
2022-09-28T00:36:21.408Z,0.97
2022-09-28T00:37:09.317Z,1.10
2022-09-28T00:37:55.712Z,0.99
2022-09-28T00:38:42.704Z,0.97
2022-09-28T00:39:31.537Z,0.93
2022-09-28T00:40:18.427Z,0.93
2022-09-28T00:41:05.326Z,0.91
2022-09-28T00:41:51.655Z,0.94
2022-09-28T00:42:38.139Z,1.02
2022-09-28T00:43:25.224Z,1.25
2022-09-28T00:44:26.526Z,1.19
2022-09-28T00:45:12.909Z,1.13
2022-09-28T00:46:03.291Z,1.01
2022-09-28T00:46:55.058Z,1.02
2022-09-28T00:47:55.343Z,1.21
2022-09-28T00:48:50.368Z,1.16
2022-09-28T00:49:53.617Z,1.20
2022-09-28T00:50:40.045Z,1.30
2022-09-28T00:51:26.954Z,1.28
2022-09-28T00:52:17.758Z,1.45
2022-09-28T00:53:09.497Z,1.38
2022-09-28T00:53:56.603Z,1.19
2022-09-28T00:54:45.885Z,1.43
2022-09-28T00:55:43.367Z,1.31
2022-09-28T00:56:33.223Z,1.25
2022-09-28T00:57:22.588Z,1.23
2022-09-28T00:58:12.065Z,1.37
2022-09-28T00:58:59.865Z,1.44
2022-09-28T00:59:46.655Z,1.19
2022-09-28T01:00:33.081Z,1.45
2022-09-28T01:01:19.559Z,1.37
2022-09-28T01:02:06.014Z,1.21
2022-09-28T01:02:52.985Z,1.27
2022-09-28T01:03:48.495Z,1.33
2022-09-28T01:04:34.854Z,1.42
2022-09-28T01:05:23.319Z,1.36
2022-09-28T01:06:10.462Z,1.38
2022-09-28T01:06:59.333Z,1.33
2022-09-28T01:07:46.650Z,1.36
2022-09-28T01:08:34.483Z,1.28
2022-09-28T01:09:22.148Z,1.26
2022-09-28T01:10:09.527Z,1.34
2022-09-28T01:10:57.289Z,1.27
2022-09-28T01:11:43.630Z,1.46
2022-09-28T01:12:30.058Z,1.53
2022-09-28T01:13:18.194Z,1.21
2022-09-28T01:14:08.877Z,1.53
2022-09-28T01:14:57.050Z,1.63
2022-09-28T01:15:49.807Z,1.50
2022-09-28T01:16:42.002Z,1.56
2022-09-28T01:17:51.519Z,1.70
2022-09-28T01:18:53.708Z,1.50
2022-09-28T01:19:59.626Z,1.59
2022-09-28T01:21:02.523Z,1.46
2022-09-28T01:22:07.803Z,1.37
2022-09-28T01:23:13.744Z,1.60
2022-09-28T01:24:09.547Z,1.64
2022-09-28T01:25:14.545Z,1.60
2022-09-28T01:26:23.985Z,1.42
2022-09-28T01:27:28.864Z,1.64
2022-09-28T01:28:18.081Z,1.50
2022-09-28T01:29:09.896Z,1.65
2022-09-28T01:30:08.393Z,1.46
2022-09-28T01:31:01.010Z,1.65
2022-09-28T01:31:53.476Z,1.16
2022-09-28T01:32:45.812Z,1.40
2022-09-28T01:33:39.275Z,1.23
2022-09-28T01:34:31.358Z,1.26
2022-09-28T01:35:31.906Z,1.35
2022-09-28T01:36:24.255Z,1.48
2022-09-28T01:37:14.703Z,1.36
2022-09-28T01:38:04.044Z,1.54
2022-09-28T01:38:58.487Z,1.63
2022-09-28T01:39:48.602Z,1.50
2022-09-28T01:40:37.068Z,1.63
2022-09-28T01:41:26.646Z,1.41
2022-09-28T01:42:18.881Z,1.24
2022-09-28T01:43:08.436Z,1.21
2022-09-28T01:43:56.345Z,1.36
2022-09-28T01:44:46.896Z,1.54
2022-09-28T01:45:37.949Z,1.40
2022-09-28T01:46:36.375Z,1.46
2022-09-28T01:47:25.775Z,1.57
2022-09-28T01:48:16.859Z,1.56
2022-09-28T01:49:09.769Z,1.51
2022-09-28T01:50:02.890Z,1.42
2022-09-28T01:50:53.496Z,1.55
2022-09-28T01:52:07.689Z,1.56
2022-09-28T01:52:57.898Z,1.47
2022-09-28T01:53:53.130Z,1.44
2022-09-28T01:54:46.751Z,1.53
2022-09-28T01:55:38.572Z,1.26
2022-09-28T01:56:38.760Z,1.16
2022-09-28T01:57:32.317Z,1.20
2022-09-28T01:58:23.983Z,1.36
2022-09-28T01:59:15.264Z,1.36
2022-09-28T02:00:07.503Z,1.45
2022-09-28T02:01:11.602Z,1.41
2022-09-28T02:02:03.347Z,1.46
2022-09-28T02:02:56.860Z,1.49
2022-09-28T02:04:05.314Z,1.50
2022-09-28T02:05:04.789Z,1.53
2022-09-28T02:05:55.421Z,1.54
2022-09-28T02:06:54.019Z,1.43
2022-09-28T02:08:03.633Z,1.70
2022-09-28T02:08:54.216Z,1.37
2022-09-28T02:09:50.294Z,1.71
2022-09-28T02:10:51.544Z,1.46
2022-09-28T02:11:42.578Z,1.53
2022-09-28T02:12:32.023Z,1.55
2022-09-28T02:13:24.213Z,1.66
2022-09-28T02:14:13.285Z,1.73
2022-09-28T02:15:10.508Z,1.67
2022-09-28T02:15:56.895Z,1.54
2022-09-28T02:16:45.937Z,1.67
2022-09-28T02:17:32.470Z,1.67
2022-09-28T02:18:19.001Z,1.60
2022-09-28T02:19:07.441Z,1.74
2022-09-28T02:19:55.317Z,1.94
2022-09-28T02:20:47.599Z,1.63
2022-09-28T02:21:41.989Z,1.54
2022-09-28T02:22:33.642Z,1.83
2022-09-28T02:23:23.702Z,1.68
2022-09-28T02:24:23.683Z,1.70
2022-09-28T02:25:21.080Z,1.56
2022-09-28T02:26:11.846Z,1.61
2022-09-28T02:27:01.269Z,1.90
2022-09-28T02:27:58.938Z,1.90
2022-09-28T02:28:46.911Z,2.01
2022-09-28T02:29:33.230Z,1.86
2022-09-28T02:30:20.380Z,1.99
2022-09-28T02:31:07.002Z,1.95
2022-09-28T02:31:53.773Z,2.10
2022-09-28T02:32:43.969Z,2.16
2022-09-28T02:33:32.819Z,1.90
2022-09-28T02:34:19.713Z,1.89
2022-09-28T02:35:08.245Z,1.93
2022-09-28T02:35:55.423Z,2.15
2022-09-28T02:36:44.936Z,2.23
2022-09-28T02:37:33.566Z,2.23
2022-09-28T02:38:19.987Z,2.61
2022-09-28T02:39:13.124Z,2.65
2022-09-28T02:40:00.428Z,2.64
2022-09-28T02:40:57.748Z,2.41
2022-09-28T02:41:46.776Z,2.39
2022-09-28T02:43:06.331Z,2.47
2022-09-28T02:44:03.467Z,2.53
2022-09-28T02:45:02.921Z,2.70
2022-09-28T02:46:07.890Z,2.73
2022-09-28T02:47:10.782Z,2.45
2022-09-28T02:48:02.955Z,2.58
2022-09-28T02:49:21.017Z,3.02
2022-09-28T02:50:20.920Z,3.06
2022-09-28T02:51:18.878Z,2.64
2022-09-28T02:52:13.937Z,3.11
2022-09-28T02:53:14.280Z,2.84
2022-09-28T02:54:00.659Z,2.75
2022-09-28T02:55:02.633Z,2.87
2022-09-28T02:56:12.166Z,2.93
2022-09-28T02:57:01.353Z,2.80
2022-09-28T02:57:53.530Z,3.06
2022-09-28T02:58:39.860Z,2.88
2022-09-28T02:59:44.905Z,2.67
2022-09-28T03:00:38.880Z,3.10
2022-09-28T03:01:50.660Z,2.87
2022-09-28T03:02:55.576Z,3.11
2022-09-28T03:03:50.459Z,3.31
2022-09-28T03:04:49.108Z,3.01
2022-09-28T03:05:51.846Z,2.98
2022-09-28T03:06:45.130Z,3.25
2022-09-28T03:07:38.196Z,2.91
2022-09-28T03:08:30.481Z,3.03
2022-09-28T03:09:23.400Z,3.19
2022-09-28T03:10:27.951Z,2.88
2022-09-28T03:11:18.860Z,3.46
2022-09-28T03:12:14.302Z,3.74
2022-09-28T03:13:02.490Z,3.41
2022-09-28T03:13:50.168Z,3.28
2022-09-28T03:14:37.483Z,3.21
2022-09-28T03:15:26.722Z,3.50
2022-09-28T03:16:16.184Z,3.47
2022-09-28T03:17:04.430Z,3.64
2022-09-28T03:17:51.674Z,3.45
2022-09-28T03:18:38.216Z,3.47
2022-09-28T03:19:28.680Z,3.83
2022-09-28T03:20:15.174Z,4.13
2022-09-28T03:21:01.641Z,3.51
2022-09-28T03:21:48.086Z,3.46
2022-09-28T03:22:34.649Z,3.87
2022-09-28T03:23:24.736Z,3.74
2022-09-28T03:24:12.045Z,3.89
2022-09-28T03:25:00.021Z,3.79
2022-09-28T03:25:46.437Z,4.13
2022-09-28T03:26:33.132Z,4.31
2022-09-28T03:27:20.278Z,4.21
2022-09-28T03:28:06.663Z,4.27
2022-09-28T03:28:58.123Z,4.65
2022-09-28T03:29:46.092Z,4.62
2022-09-28T03:30:32.415Z,4.52
2022-09-28T03:31:19.054Z,4.13
2022-09-28T03:32:05.461Z,4.43
2022-09-28T03:33:00.020Z,4.71
2022-09-28T03:33:48.723Z,5.40
2022-09-28T03:34:35.592Z,5.04
2022-09-28T03:35:21.975Z,5.64
2022-09-28T03:36:09.534Z,5.05
2022-09-28T03:36:57.039Z,5.64
2022-09-28T03:37:43.450Z,6.26
2022-09-28T03:38:29.911Z,5.97
2022-09-28T03:39:16.747Z,6.20
2022-09-28T03:40:04.379Z,5.69
2022-09-28T03:40:56.231Z,6.02
2022-09-28T03:41:42.903Z,5.67
2022-09-28T03:42:29.281Z,5.73
2022-09-28T03:43:15.653Z,5.69
2022-09-28T03:44:02.670Z,5.28
2022-09-28T03:44:51.038Z,6.55
2022-09-28T03:45:37.553Z,6.68
2022-09-28T03:46:24.103Z,6.27
2022-09-28T03:47:15.812Z,6.73
2022-09-28T03:48:02.455Z,7.49
2022-09-28T03:48:48.824Z,6.72
2022-09-28T03:49:35.887Z,6.73
2022-09-28T03:50:22.717Z,6.83
2022-09-28T03:51:10.350Z,7.02
2022-09-28T03:51:58.293Z,7.26
2022-09-28T03:52:44.852Z,6.63
2022-09-28T03:53:33.004Z,6.42
2022-09-28T03:54:20.650Z,6.79
2022-09-28T03:55:07.286Z,7.17
2022-09-28T03:55:54.228Z,6.84
2022-09-28T03:56:40.743Z,7.28
2022-09-28T03:57:27.257Z,7.83
2022-09-28T03:58:13.778Z,7.28
2022-09-28T03:59:02.333Z,7.23
2022-09-28T03:59:48.711Z,7.70
2022-09-28T04:00:35.336Z,7.55
2022-09-28T04:01:22.307Z,7.94
2022-09-28T04:02:09.323Z,8.10
2022-09-28T04:02:55.696Z,7.82
2022-09-28T04:03:42.512Z,7.82
2022-09-28T04:04:28.918Z,8.02
2022-09-28T04:05:15.370Z,7.61
2022-09-28T04:06:01.757Z,8.02
2022-09-28T04:06:48.355Z,7.91
2022-09-28T04:07:34.845Z,7.45
2022-09-28T04:08:21.468Z,7.48
2022-09-28T04:09:08.713Z,7.85
2022-09-28T04:09:55.063Z,8.26
2022-09-28T04:10:41.508Z,8.09
2022-09-28T04:11:38.479Z,8.32
2022-09-28T04:12:35.926Z,8.94
2022-09-28T04:13:25.283Z,9.11
2022-09-28T04:14:11.614Z,8.82
2022-09-28T04:14:57.997Z,9.47
2022-09-28T04:15:51.597Z,9.79
2022-09-28T04:16:38.627Z,9.91
2022-09-28T04:17:29.074Z,9.95
2022-09-28T04:18:16.184Z,10.24
2022-09-28T04:19:16.259Z,9.72
2022-09-28T04:20:21.989Z,9.49
2022-09-28T04:21:27.018Z,10.05
2022-09-28T04:22:19.682Z,9.35
2022-09-28T04:23:06.341Z,9.74
2022-09-28T04:23:53.138Z,10.38
2022-09-28T04:24:43.423Z,10.13
2022-09-28T04:25:29.753Z,10.30
2022-09-28T04:26:18.619Z,10.28
2022-09-28T04:27:23.750Z,10.25
2022-09-28T04:28:28.396Z,10.35
2022-09-28T04:29:19.097Z,10.03
2022-09-28T04:30:16.778Z,10.70
2022-09-28T04:31:08.917Z,10.12
2022-09-28T04:31:55.797Z,10.20
2022-09-28T04:32:49.423Z,10.49
2022-09-28T04:33:36.775Z,9.59
2022-09-28T04:34:23.146Z,9.50
2022-09-28T04:35:14.831Z,9.79
2022-09-28T04:36:02.345Z,9.95
2022-09-28T04:36:48.810Z,9.73
2022-09-28T04:37:35.161Z,10.26
2022-09-28T04:38:35.812Z,10.06
2022-09-28T04:39:29.033Z,10.30
2022-09-28T04:40:16.408Z,10.16
2022-09-28T04:41:03.122Z,10.50
2022-09-28T04:41:49.795Z,10.21
2022-09-28T04:42:36.380Z,10.28
2022-09-28T04:43:22.742Z,10.66
2022-09-28T04:44:09.463Z,10.10
2022-09-28T04:44:58.050Z,9.69
2022-09-28T04:45:44.689Z,10.73
2022-09-28T04:46:31.872Z,10.73
2022-09-28T04:47:47.741Z,10.07
2022-09-28T04:48:46.667Z,10.57
2022-09-28T04:49:54.913Z,10.75
2022-09-28T04:50:52.834Z,11.29
2022-09-28T04:51:41.411Z,11.51
2022-09-28T04:52:27.874Z,11.52
2022-09-28T04:53:14.512Z,11.35
2022-09-28T04:54:00.860Z,10.42
2022-09-28T04:54:47.450Z,10.38
2022-09-28T04:55:33.860Z,10.74
2022-09-28T04:56:20.374Z,10.90
2022-09-28T04:57:06.708Z,11.08
2022-09-28T04:57:53.040Z,10.93
2022-09-28T04:58:40.103Z,10.82
2022-09-28T04:59:27.005Z,11.15
2022-09-28T05:00:13.999Z,11.31
2022-09-28T05:01:23.712Z,10.52
2022-09-28T05:02:14.877Z,12.09
2022-09-28T05:03:20.911Z,11.01
2022-09-28T05:04:42.671Z,11.13
2022-09-28T05:05:43.859Z,11.96
2022-09-28T05:06:49.228Z,11.37
2022-09-28T05:07:35.798Z,11.97
2022-09-28T05:08:24.443Z,12.25
2022-09-28T05:09:11.388Z,12.01
2022-09-28T05:09:57.832Z,11.76
2022-09-28T05:10:44.388Z,11.20
2022-09-28T05:11:30.820Z,11.36
2022-09-28T05:12:17.843Z,11.89
2022-09-28T05:13:04.275Z,11.86
2022-09-28T05:13:51.209Z,11.70
2022-09-28T05:14:38.910Z,11.88
2022-09-28T05:15:25.587Z,12.28
2022-09-28T05:16:13.906Z,12.87
2022-09-28T05:17:20.264Z,13.31
2022-09-28T05:18:27.336Z,13.56
2022-09-28T05:19:21.607Z,14.39
2022-09-28T05:20:11.785Z,15.20
2022-09-28T05:20:59.337Z,15.24
2022-09-28T05:21:46.994Z,14.78
2022-09-28T05:22:34.129Z,15.83
2022-09-28T05:23:20.554Z,16.10
2022-09-28T05:24:07.625Z,13.77
2022-09-28T05:24:58.191Z,12.07
2022-09-28T05:25:47.774Z,11.95
2022-09-28T05:26:37.730Z,11.16
2022-09-28T05:27:25.809Z,11.32
2022-09-28T05:28:28.280Z,11.20
2022-09-28T05:29:33.940Z,11.71
2022-09-28T05:31:04.776Z,11.13
2022-09-28T05:32:16.712Z,11.23
2022-09-28T05:33:17.804Z,11.25
2022-09-28T05:34:13.554Z,10.31
2022-09-28T05:35:01.282Z,10.94
2022-09-28T05:36:01.292Z,11.21
2022-09-28T05:36:49.099Z,11.08
2022-09-28T05:37:36.866Z,10.68
2022-09-28T05:38:24.440Z,10.43
2022-09-28T05:39:11.079Z,11.24
2022-09-28T05:39:57.696Z,10.65
2022-09-28T05:40:45.484Z,10.70
2022-09-28T05:41:32.097Z,12.31
2022-09-28T05:42:19.949Z,13.07
2022-09-28T05:43:06.336Z,13.21
2022-09-28T05:43:54.909Z,11.90
2022-09-28T05:44:41.640Z,11.64
2022-09-28T05:45:31.033Z,11.33
2022-09-28T05:46:17.898Z,12.24
2022-09-28T05:47:04.344Z,11.78
2022-09-28T05:47:50.833Z,10.94
2022-09-28T05:48:40.518Z,9.72
2022-09-28T05:49:29.171Z,10.79
2022-09-28T05:50:16.215Z,10.75
2022-09-28T05:51:02.614Z,9.96
2022-09-28T05:51:50.798Z,10.23
2022-09-28T05:52:40.119Z,9.54
2022-09-28T05:53:27.616Z,10.45
2022-09-28T05:54:15.696Z,10.37
2022-09-28T05:55:06.874Z,8.83
2022-09-28T05:55:57.409Z,9.53
2022-09-28T05:56:44.619Z,9.83
2022-09-28T05:57:31.259Z,9.63
2022-09-28T05:58:17.755Z,9.52
2022-09-28T05:59:06.029Z,10.72
2022-09-28T05:59:53.553Z,12.05
2022-09-28T06:00:40.126Z,14.02
2022-09-28T06:01:27.309Z,13.60
2022-09-28T06:02:15.074Z,13.38
2022-09-28T06:03:08.683Z,12.45
2022-09-28T06:03:55.487Z,11.77
2022-09-28T06:04:42.025Z,12.51
2022-09-28T06:05:29.085Z,12.12
2022-09-28T06:06:15.503Z,11.16
2022-09-28T06:07:03.432Z,11.07
2022-09-28T06:07:49.992Z,11.93
2022-09-28T06:08:37.739Z,10.77
2022-09-28T06:09:40.231Z,10.34
2022-09-28T06:10:39.605Z,8.86
2022-09-28T06:11:27.771Z,9.00
2022-09-28T06:12:16.411Z,9.67
2022-09-28T06:13:10.345Z,9.41
2022-09-28T06:13:57.651Z,10.73
2022-09-28T06:14:49.596Z,9.80
2022-09-28T06:15:36.418Z,8.77
2022-09-28T06:16:23.699Z,9.79
2022-09-28T06:17:11.008Z,10.21
2022-09-28T06:17:58.936Z,9.88
2022-09-28T06:19:02.424Z,9.50
2022-09-28T06:20:07.794Z,10.43
2022-09-28T06:21:15.720Z,8.93
2022-09-28T06:22:05.063Z,8.95
2022-09-28T06:22:55.229Z,9.03
2022-09-28T06:23:45.625Z,8.46
2022-09-28T06:24:34.769Z,7.79
2022-09-28T06:25:22.527Z,7.85
2022-09-28T06:26:08.897Z,8.69
2022-09-28T06:26:55.666Z,9.02
2022-09-28T06:27:42.470Z,9.23
2022-09-28T06:28:29.005Z,8.58
2022-09-28T06:29:19.773Z,8.11
2022-09-28T06:30:07.248Z,8.05
2022-09-28T06:30:54.093Z,8.23
2022-09-28T06:31:40.982Z,8.26
2022-09-28T06:32:29.705Z,7.52
2022-09-28T06:33:16.571Z,7.43
2022-09-28T06:34:03.112Z,8.64
2022-09-28T06:34:52.836Z,8.19
2022-09-28T06:35:43.925Z,7.58
2022-09-28T06:36:33.733Z,8.15
2022-09-28T06:37:20.418Z,7.12
2022-09-28T06:38:07.215Z,7.23
2022-09-28T06:38:53.789Z,7.95
2022-09-28T06:39:40.679Z,8.23
2022-09-28T06:40:28.220Z,7.65
2022-09-28T06:41:16.020Z,7.74
2022-09-28T06:42:04.285Z,7.67
2022-09-28T06:43:12.232Z,7.08
2022-09-28T06:44:17.396Z,7.57
2022-09-28T06:45:30.325Z,6.93
2022-09-28T06:46:43.342Z,6.36
2022-09-28T06:47:42.099Z,6.84
2022-09-28T06:48:40.948Z,6.90
2022-09-28T06:49:32.818Z,6.56
2022-09-28T06:50:42.381Z,7.25
2022-09-28T06:51:49.199Z,8.45
2022-09-28T06:52:40.938Z,8.82
2022-09-28T06:53:45.683Z,9.77
2022-09-28T06:54:48.497Z,10.03
2022-09-28T06:55:49.001Z,9.43
2022-09-28T06:56:35.391Z,8.17
2022-09-28T06:57:21.718Z,7.92
2022-09-28T06:58:11.886Z,7.47
2022-09-28T06:59:00.567Z,7.45
2022-09-28T06:59:48.065Z,7.97
2022-09-28T07:00:36.138Z,7.88
2022-09-28T07:01:22.558Z,8.15
2022-09-28T07:02:23.089Z,7.00
2022-09-28T07:03:28.449Z,7.53
2022-09-28T07:04:23.785Z,7.82
2022-09-28T07:05:41.337Z,7.19
2022-09-28T07:06:57.342Z,6.58
2022-09-28T07:08:03.121Z,6.63
2022-09-28T07:09:25.911Z,6.47
2022-09-28T07:10:23.175Z,6.41
2022-09-28T07:11:42.011Z,6.91
2022-09-28T07:12:34.615Z,6.96
2022-09-28T07:13:46.625Z,6.37
2022-09-28T07:14:47.900Z,6.39
2022-09-28T07:15:35.569Z,6.45
2022-09-28T07:16:26.937Z,6.44
2022-09-28T07:17:17.441Z,6.66
2022-09-28T07:18:05.270Z,6.41
2022-09-28T07:18:52.556Z,6.55
2022-09-28T07:19:39.809Z,6.37
2022-09-28T07:20:26.404Z,6.15
2022-09-28T07:21:22.760Z,5.83
2022-09-28T07:22:18.565Z,6.43
2022-09-28T07:23:18.652Z,6.28
2022-09-28T07:24:26.122Z,6.17
2022-09-28T07:25:32.868Z,6.65
2022-09-28T07:26:27.436Z,6.39
2022-09-28T07:27:29.371Z,6.61
2022-09-28T07:28:32.135Z,6.02
2022-09-28T07:29:36.566Z,6.36
2022-09-28T07:30:44.430Z,6.02
2022-09-28T07:31:35.208Z,5.90
2022-09-28T07:32:37.084Z,6.56
2022-09-28T07:33:44.770Z,6.28
2022-09-28T07:34:45.761Z,5.77
2022-09-28T07:35:38.028Z,5.16
2022-09-28T07:36:24.989Z,5.47
2022-09-28T07:37:13.410Z,5.35
2022-09-28T07:38:02.699Z,5.65
2022-09-28T07:38:50.880Z,5.45
2022-09-28T07:39:57.996Z,5.65
2022-09-28T07:41:02.900Z,5.98
2022-09-28T07:41:49.415Z,5.41
2022-09-28T07:42:38.477Z,4.84
2022-09-28T07:43:24.991Z,5.31
2022-09-28T07:44:12.994Z,5.20
2022-09-28T07:44:59.871Z,5.73
2022-09-28T07:45:47.767Z,6.26
2022-09-28T07:46:35.338Z,5.64
2022-09-28T07:47:30.840Z,5.56
2022-09-28T07:48:52.645Z,5.59
2022-09-28T07:49:54.930Z,6.04
2022-09-28T07:51:09.954Z,5.73
2022-09-28T07:52:01.301Z,5.61
2022-09-28T07:52:47.968Z,5.82
2022-09-28T07:53:42.643Z,5.62
2022-09-28T07:54:52.064Z,5.90
2022-09-28T07:55:53.570Z,5.64
2022-09-28T07:57:06.858Z,5.75
2022-09-28T07:58:16.257Z,5.56
2022-09-28T07:59:13.666Z,5.51
2022-09-28T08:00:05.013Z,5.69
2022-09-28T08:01:08.889Z,5.09
2022-09-28T08:01:55.477Z,5.16
2022-09-28T08:02:42.100Z,5.40
2022-09-28T08:03:28.753Z,5.31
2022-09-28T08:04:15.619Z,4.95
2022-09-28T08:05:04.227Z,4.36
2022-09-28T08:05:51.909Z,4.77
2022-09-28T08:06:40.348Z,4.50
2022-09-28T08:07:28.321Z,4.85
2022-09-28T08:08:22.560Z,4.86
2022-09-28T08:09:09.252Z,5.17
2022-09-28T08:10:16.861Z,5.11
2022-09-28T08:11:19.988Z,4.63
2022-09-28T08:12:25.577Z,4.67
2022-09-28T08:13:30.992Z,4.74
2022-09-28T08:14:35.812Z,4.89
2022-09-28T08:15:36.928Z,4.40
2022-09-28T08:16:48.597Z,4.81
2022-09-28T08:17:59.106Z,6.02
2022-09-28T08:18:49.806Z,5.23
2022-09-28T08:19:55.000Z,5.05
2022-09-28T08:20:59.999Z,5.25
2022-09-28T08:21:46.757Z,5.19
2022-09-28T08:22:33.780Z,4.87
2022-09-28T08:23:20.922Z,4.90
2022-09-28T08:24:07.289Z,4.76
2022-09-28T08:24:53.641Z,4.86
2022-09-28T08:25:40.573Z,4.99
2022-09-28T08:26:27.214Z,4.61
2022-09-28T08:27:14.549Z,4.53
2022-09-28T08:28:01.009Z,4.49
2022-09-28T08:28:50.101Z,4.56
2022-09-28T08:29:59.745Z,4.27
2022-09-28T08:31:01.622Z,4.58
2022-09-28T08:31:51.098Z,4.32
2022-09-28T08:33:17.874Z,4.53
2022-09-28T08:34:23.836Z,4.43
2022-09-28T08:35:42.382Z,4.68
2022-09-28T08:36:38.781Z,4.67
2022-09-28T08:37:55.618Z,4.47
2022-09-28T08:39:01.105Z,4.29
2022-09-28T08:40:19.271Z,4.08
2022-09-28T08:41:41.017Z,3.98
2022-09-28T08:42:42.958Z,4.40
2022-09-28T08:44:11.977Z,5.67
2022-09-28T08:45:35.921Z,5.16
2022-09-28T08:46:40.934Z,4.78
2022-09-28T08:48:13.363Z,5.53
2022-09-28T08:49:49.902Z,4.67
2022-09-28T08:50:55.045Z,4.17
2022-09-28T08:52:10.576Z,3.71
2022-09-28T08:53:35.254Z,3.78
2022-09-28T08:54:36.673Z,3.92
2022-09-28T08:55:28.828Z,4.49
2022-09-28T08:56:24.193Z,4.97
2022-09-28T08:57:27.213Z,4.87
2022-09-28T08:58:17.416Z,5.38
2022-09-28T08:59:11.949Z,5.24
2022-09-28T09:00:02.397Z,4.54
2022-09-28T09:01:07.237Z,4.53
2022-09-28T09:02:03.609Z,5.47
2022-09-28T09:02:51.952Z,4.60
2022-09-28T09:03:41.801Z,3.59
2022-09-28T09:04:49.372Z,3.93
2022-09-28T09:05:55.974Z,4.33
2022-09-28T09:07:02.227Z,5.41
2022-09-28T09:08:05.407Z,5.35
2022-09-28T09:09:13.712Z,5.02
2022-09-28T09:10:13.637Z,4.67
2022-09-28T09:11:23.066Z,3.99
2022-09-28T09:12:28.108Z,4.33
2022-09-28T09:13:16.158Z,5.02
2022-09-28T09:14:22.594Z,5.57
2022-09-28T09:15:28.351Z,5.58
2022-09-28T09:16:18.080Z,4.27
2022-09-28T09:17:33.037Z,4.12
2022-09-28T09:18:39.593Z,3.35
2022-09-28T09:19:51.124Z,3.48
2022-09-28T09:20:57.241Z,3.42
2022-09-28T09:21:48.875Z,3.16
2022-09-28T09:22:35.285Z,3.15
2022-09-28T09:23:36.900Z,2.96
2022-09-28T09:24:28.000Z,3.00
2022-09-28T09:25:28.401Z,2.96
2022-09-28T09:26:23.060Z,3.26
2022-09-28T09:27:38.118Z,3.33
2022-09-28T09:28:27.415Z,3.14
2022-09-28T09:29:26.482Z,2.91
2022-09-28T09:30:21.932Z,2.85
2022-09-28T09:31:14.881Z,2.83
2022-09-28T09:32:14.348Z,2.95
2022-09-28T09:33:24.143Z,2.75
2022-09-28T09:34:41.718Z,2.23
2022-09-28T09:36:09.438Z,2.25
2022-09-28T09:37:35.335Z,2.29
2022-09-28T09:38:40.785Z,2.34
2022-09-28T09:39:49.024Z,2.39
2022-09-28T09:42:18.650Z,1.97
2022-09-28T09:43:36.799Z,1.83
2022-09-28T09:45:13.804Z,2.04
2022-09-28T09:46:43.532Z,2.15
2022-09-28T09:47:48.519Z,1.81
2022-09-28T09:48:52.833Z,2.29
2022-09-28T09:49:44.826Z,2.15
2022-09-28T09:52:01.567Z,1.99
2022-09-28T09:53:11.028Z,2.07
2022-09-28T09:54:10.848Z,1.73
2022-09-28T09:55:00.104Z,1.74
2022-09-28T09:56:12.754Z,1.93
2022-09-28T09:57:32.217Z,1.92
2022-09-28T09:58:33.234Z,1.81
2022-09-28T10:00:12.992Z,1.79
2022-09-28T10:01:17.250Z,2.37
2022-09-28T10:02:26.324Z,1.96
2022-09-28T10:03:27.073Z,1.82
2022-09-28T10:04:53.233Z,1.71
2022-09-28T10:05:51.461Z,2.34
2022-09-28T10:07:17.516Z,5.15
2022-09-28T10:08:15.338Z,5.47
2022-09-28T10:09:05.431Z,5.00
2022-09-28T10:09:56.819Z,4.16
2022-09-28T10:11:08.374Z,2.81
2022-09-28T10:11:58.463Z,2.33
2022-09-28T10:12:45.170Z,2.17
2022-09-28T10:13:33.930Z,2.21
2022-09-28T10:14:25.398Z,1.87
2022-09-28T10:15:24.362Z,1.42
2022-09-28T10:16:48.424Z,1.56
2022-09-28T10:17:49.941Z,1.67
2022-09-28T10:18:54.909Z,1.93
2022-09-28T10:19:59.873Z,1.71
2022-09-28T10:21:02.263Z,1.63
2022-09-28T10:22:14.972Z,1.60
2022-09-28T10:23:03.612Z,1.71
2022-09-28T10:23:55.296Z,1.50
2022-09-28T10:24:47.888Z,1.29
2022-09-28T10:25:37.961Z,1.38
2022-09-28T10:26:28.873Z,1.69
2022-09-28T10:27:19.068Z,1.84
2022-09-28T10:28:10.437Z,1.83
2022-09-28T10:29:14.644Z,1.77
2022-09-28T10:30:08.410Z,1.30
2022-09-28T10:30:56.864Z,1.63
2022-09-28T10:31:47.220Z,1.88
2022-09-28T10:32:43.713Z,1.88
2022-09-28T10:33:35.571Z,1.68
2022-09-28T10:34:33.330Z,1.40
2022-09-28T10:35:27.623Z,1.40
2022-09-28T10:36:17.487Z,1.31
2022-09-28T10:37:08.557Z,1.18
2022-09-28T10:38:18.775Z,1.88
2022-09-28T10:39:28.881Z,2.07
2022-09-28T10:40:36.108Z,2.07
2022-09-28T10:41:25.482Z,1.22
2022-09-28T10:42:26.753Z,1.08
2022-09-28T10:43:25.486Z,0.93
2022-09-28T10:44:18.604Z,1.28
2022-09-28T10:45:25.714Z,2.32
2022-09-28T10:46:14.816Z,2.17
2022-09-28T10:47:13.455Z,1.74
2022-09-28T10:48:01.940Z,1.55
2022-09-28T10:48:53.236Z,1.76
2022-09-28T10:49:49.034Z,2.01
2022-09-28T10:50:40.651Z,1.50
2022-09-28T10:51:40.744Z,1.39
2022-09-28T10:52:36.169Z,1.24
2022-09-28T10:53:22.580Z,1.33
2022-09-28T10:54:29.418Z,1.70
2022-09-28T10:55:21.146Z,2.06
2022-09-28T10:56:19.086Z,1.80
2022-09-28T10:57:26.353Z,1.56
2022-09-28T10:58:24.759Z,1.46
2022-09-28T10:59:29.177Z,1.64
2022-09-28T11:00:30.990Z,1.53
2022-09-28T11:01:43.661Z,1.76
2022-09-28T11:02:36.159Z,1.88
2022-09-28T11:03:41.814Z,2.58
2022-09-28T11:04:30.386Z,2.10
2022-09-28T11:05:20.948Z,1.98
2022-09-28T11:06:08.688Z,2.96
2022-09-28T11:07:00.967Z,2.89
2022-09-28T11:07:47.982Z,2.75
2022-09-28T11:08:42.247Z,2.73
2022-09-28T11:09:36.757Z,2.04
2022-09-28T11:10:31.766Z,1.82
2022-09-28T11:11:26.893Z,1.53
2022-09-28T11:12:26.439Z,1.68
2022-09-28T11:13:13.877Z,1.57
2022-09-28T11:14:04.554Z,1.33
2022-09-28T11:15:03.231Z,1.35
2022-09-28T11:15:50.165Z,1.47
2022-09-28T11:16:44.390Z,1.58
2022-09-28T11:17:33.414Z,1.70
2022-09-28T11:18:32.257Z,1.80
2022-09-28T11:19:28.329Z,2.28
2022-09-28T11:20:27.838Z,2.14
2022-09-28T11:21:21.326Z,2.35
2022-09-28T11:22:21.469Z,1.77
2022-09-28T11:23:22.564Z,2.00
2022-09-28T11:24:18.828Z,2.00
2022-09-28T11:25:14.205Z,2.00
2022-09-28T11:26:18.785Z,1.82
2022-09-28T11:27:05.658Z,1.71
2022-09-28T11:27:52.391Z,2.24
2022-09-28T11:28:41.961Z,2.32
2022-09-28T11:29:43.053Z,1.76
2022-09-28T11:30:41.161Z,1.64
2022-09-28T11:31:43.960Z,1.14
2022-09-28T11:32:42.415Z,1.13
2022-09-28T11:33:44.794Z,1.41
2022-09-28T11:34:59.665Z,1.45
2022-09-28T11:36:02.188Z,1.43
2022-09-28T11:37:11.037Z,1.45
2022-09-28T11:38:01.130Z,1.81
2022-09-28T11:39:09.078Z,2.15
2022-09-28T11:40:19.004Z,1.77
2022-09-28T11:41:05.479Z,1.69
2022-09-28T11:41:51.823Z,1.97
2022-09-28T11:42:58.700Z,2.03
2022-09-28T11:43:54.616Z,1.78
2022-09-28T11:44:49.012Z,1.58
2022-09-28T11:45:57.689Z,1.75
2022-09-28T11:47:02.439Z,2.11
2022-09-28T11:48:02.549Z,2.27
2022-09-28T11:48:55.267Z,3.24
2022-09-28T11:49:58.794Z,2.98
2022-09-28T11:50:48.546Z,2.97
2022-09-28T11:51:41.490Z,3.01
2022-09-28T11:52:36.821Z,2.39
2022-09-28T11:53:23.864Z,2.25
2022-09-28T11:54:28.889Z,2.53
2022-09-28T11:55:24.490Z,2.53
2022-09-28T11:56:19.676Z,2.69
2022-09-28T11:57:15.353Z,2.96
2022-09-28T11:58:15.913Z,2.72
2022-09-28T11:59:12.009Z,2.32
2022-09-28T12:00:12.999Z,2.57
2022-09-28T12:01:48.854Z,2.76
2022-09-28T12:03:16.108Z,2.37
2022-09-28T12:04:07.931Z,2.08
2022-09-28T12:04:57.003Z,3.48
2022-09-28T12:05:53.547Z,2.73